createdAt,value
2022-08-11T00:02:05.559Z,16.50
2022-08-11T00:07:20.076Z,16.30
2022-08-11T00:12:23.785Z,16.20
2022-08-11T00:17:29.655Z,16.10
2022-08-11T00:22:38.178Z,16.00
2022-08-11T00:27:42.505Z,16.00
2022-08-11T00:32:54.151Z,15.80
2022-08-11T00:38:00.334Z,15.80
2022-08-11T00:43:20.878Z,15.70
2022-08-11T00:48:29.412Z,15.60
2022-08-11T00:53:49.107Z,15.50
2022-08-11T00:59:35.487Z,15.40
2022-08-11T01:05:24.870Z,15.30
2022-08-11T01:11:02.744Z,15.10
2022-08-11T01:16:24.803Z,15.10
2022-08-11T01:22:03.532Z,14.90
2022-08-11T01:27:35.807Z,15.00
2022-08-11T01:33:20.153Z,15.00
2022-08-11T01:38:55.978Z,14.90
2022-08-11T01:44:31.933Z,14.80
2022-08-11T01:50:08.133Z,14.70
2022-08-11T01:55:15.727Z,14.70
2022-08-11T02:00:20.859Z,14.60
2022-08-11T02:05:35.907Z,14.50
2022-08-11T02:11:05.473Z,14.40
2022-08-11T02:16:17.500Z,14.40
2022-08-11T02:21:46.600Z,14.40
2022-08-11T02:27:02.232Z,14.30
2022-08-11T02:32:31.992Z,14.20
2022-08-11T02:37:45.208Z,14.10
2022-08-11T02:43:04.550Z,14.10
2022-08-11T02:48:34.257Z,14.10
2022-08-11T02:53:43.972Z,14.00
2022-08-11T02:59:26.995Z,14.00
2022-08-11T03:04:48.194Z,13.90
2022-08-11T03:09:58.632Z,13.80
2022-08-11T03:15:29.502Z,13.80
2022-08-11T03:20:42.423Z,13.80
2022-08-11T03:25:54.624Z,13.80
2022-08-11T03:31:15.533Z,13.70
2022-08-11T03:37:15.551Z,13.70
2022-08-11T03:42:10.397Z,13.70
2022-08-11T03:47:27.241Z,13.60
2022-08-11T03:52:44.216Z,13.60
2022-08-11T03:58:24.102Z,13.60
2022-08-11T04:04:07.468Z,13.60
2022-08-11T04:09:59.124Z,13.70
2022-08-11T04:15:32.404Z,13.70
2022-08-11T04:21:03.194Z,13.80
2022-08-11T04:26:48.265Z,13.90
2022-08-11T04:32:04.271Z,13.90
2022-08-11T04:37:34.642Z,14.00
2022-08-11T04:43:20.711Z,14.20
2022-08-11T04:49:07.375Z,14.30
2022-08-11T04:54:44.485Z,14.50
2022-08-11T05:00:22.819Z,14.60
2022-08-11T05:05:56.332Z,14.80
2022-08-11T05:11:28.533Z,15.00
2022-08-11T05:17:00.344Z,15.30
2022-08-11T05:22:24.963Z,15.80
2022-08-11T05:27:52.772Z,16.90
2022-08-11T05:33:20.996Z,19.60
2022-08-11T05:38:45.477Z,21.80
2022-08-11T05:44:21.810Z,23.20
2022-08-11T05:49:48.891Z,24.00
2022-08-11T05:55:10.822Z,24.60
2022-08-11T06:00:15.894Z,25.10
2022-08-11T06:05:19.569Z,26.70
2022-08-11T06:10:28.933Z,27.50
2022-08-11T06:15:34.821Z,27.50
2022-08-11T06:20:47.538Z,28.20
2022-08-11T06:25:52.748Z,28.10
2022-08-11T06:30:58.102Z,28.70
2022-08-11T06:36:07.571Z,28.50
2022-08-11T06:41:32.756Z,28.80
2022-08-11T06:46:40.485Z,29.80
2022-08-11T06:51:48.505Z,30.30
2022-08-11T06:57:29.275Z,30.20
2022-08-11T07:02:52.366Z,31.20
2022-08-11T07:08:46.636Z,32.20
2022-08-11T07:14:12.934Z,32.60
2022-08-11T07:19:40.025Z,32.60
2022-08-11T07:25:10.737Z,33.10
2022-08-11T07:30:14.196Z,32.00
2022-08-11T07:35:23.482Z,33.30
2022-08-11T07:40:27.175Z,33.40
2022-08-11T07:45:49.643Z,32.50
2022-08-11T07:51:13.551Z,32.30
2022-08-11T07:56:21.857Z,31.40
2022-08-11T08:02:01.625Z,31.40
2022-08-11T08:07:25.633Z,32.50
2022-08-11T08:12:50.290Z,33.00
2022-08-11T08:18:20.730Z,33.40
2022-08-11T08:23:35.779Z,34.20
2022-08-11T08:28:39.952Z,34.30
2022-08-11T08:33:43.736Z,35.00
2022-08-11T08:38:50.536Z,33.40
2022-08-11T08:44:05.934Z,32.20
2022-08-11T08:49:26.910Z,31.70
2022-08-11T08:54:37.160Z,33.10
2022-08-11T08:59:48.381Z,32.70
2022-08-11T09:04:53.098Z,33.80
2022-08-11T09:09:58.935Z,34.40
2022-08-11T09:15:05.474Z,34.90
2022-08-11T09:20:12.344Z,34.80
2022-08-11T09:25:36.281Z,36.20
2022-08-11T09:30:42.539Z,34.40
2022-08-11T09:35:47.625Z,33.80
2022-08-11T09:40:57.032Z,34.60
2022-08-11T09:46:01.087Z,34.40
2022-08-11T09:51:05.232Z,34.50
2022-08-11T09:56:30.528Z,34.90
2022-08-11T10:01:42.345Z,33.60
2022-08-11T10:07:04.705Z,33.60
2022-08-11T10:12:12.890Z,32.90
2022-08-11T10:17:18.737Z,34.60
2022-08-11T10:22:40.252Z,35.40
2022-08-11T10:28:18.712Z,34.70
2022-08-11T10:33:37.079Z,35.00
2022-08-11T10:38:41.743Z,34.60
2022-08-11T10:44:02.498Z,34.30
2022-08-11T10:49:07.706Z,34.40
2022-08-11T10:54:29.996Z,33.30
2022-08-11T10:59:35.249Z,34.60
2022-08-11T11:04:52.427Z,34.20
2022-08-11T11:09:59.972Z,32.70
2022-08-11T11:15:26.499Z,32.00
2022-08-11T11:20:36.678Z,31.10
2022-08-11T11:26:06.995Z,32.90
2022-08-11T11:31:24.933Z,33.90
2022-08-11T11:36:39.521Z,34.50
2022-08-11T11:41:43.324Z,34.00
2022-08-11T11:46:48.373Z,34.80
2022-08-11T11:51:52.854Z,34.00
2022-08-11T11:56:58.350Z,34.90
2022-08-11T12:02:11.709Z,33.30
2022-08-11T12:07:35.448Z,33.40
2022-08-11T12:12:57.485Z,33.10
2022-08-11T12:18:02.638Z,34.00
2022-08-11T12:23:24.768Z,35.00
2022-08-11T12:28:29.611Z,35.20
2022-08-11T12:33:37.403Z,35.00
2022-08-11T12:38:51.270Z,35.10
2022-08-11T12:44:14.706Z,34.70
2022-08-11T12:49:44.749Z,34.10
2022-08-11T12:54:59.909Z,34.60
2022-08-11T13:00:24.392Z,34.90
2022-08-11T13:05:32.212Z,33.80
2022-08-11T13:10:57.961Z,32.80
2022-08-11T13:16:01.279Z,32.80
2022-08-11T13:21:06.213Z,33.00
2022-08-11T13:26:10.427Z,32.70
2022-08-11T13:31:15.180Z,32.50
2022-08-11T13:36:21.375Z,31.70
2022-08-11T13:41:39.288Z,31.90
2022-08-11T13:46:44.363Z,32.30
2022-08-11T13:51:50.160Z,32.40
2022-08-11T13:56:56.170Z,33.10
2022-08-11T14:02:22.923Z,32.30
2022-08-11T14:07:38.155Z,32.20
2022-08-11T14:13:05.734Z,31.90
2022-08-11T14:18:13.760Z,31.90
2022-08-11T14:23:19.481Z,31.70
2022-08-11T14:28:33.894Z,31.70
2022-08-11T14:34:00.287Z,31.50
2022-08-11T14:39:12.734Z,32.00
2022-08-11T14:44:35.389Z,32.50
2022-08-11T14:49:49.224Z,32.50
2022-08-11T14:55:24.263Z,31.90
2022-08-11T15:00:28.353Z,31.90
2022-08-11T15:05:32.200Z,31.30
2022-08-11T15:10:37.308Z,31.20
2022-08-11T15:16:03.796Z,31.80
2022-08-11T15:21:27.858Z,31.60
2022-08-11T15:26:58.127Z,31.10
2022-08-11T15:32:19.748Z,31.50
2022-08-11T15:37:31.573Z,31.30
2022-08-11T15:43:04.219Z,31.80
2022-08-11T15:48:10.598Z,31.60
2022-08-11T15:53:20.087Z,31.20
2022-08-11T15:59:10.709Z,30.90
2022-08-11T16:04:16.839Z,30.30
2022-08-11T16:09:24.918Z,29.80
2022-08-11T16:14:52.496Z,29.50
2022-08-11T16:19:58.887Z,29.30
2022-08-11T16:27:04.750Z,29.60
2022-08-11T16:30:32.127Z,29.80
2022-08-11T16:35:58.206Z,29.70
2022-08-11T16:41:09.593Z,29.60
2022-08-11T16:46:38.284Z,29.40
2022-08-11T16:51:41.440Z,29.70
2022-08-11T16:56:48.945Z,30.10
2022-08-11T17:01:55.864Z,29.80
2022-08-11T17:07:40.129Z,29.70
2022-08-11T17:13:03.125Z,29.60
2022-08-11T17:18:09.836Z,29.60
2022-08-11T17:23:32.204Z,29.10
2022-08-11T17:28:37.662Z,29.10
2022-08-11T17:34:02.589Z,28.80
2022-08-11T17:39:05.862Z,28.30
2022-08-11T17:44:27.905Z,27.80
2022-08-11T17:49:37.489Z,27.60
2022-08-11T17:55:00.495Z,27.40
2022-08-11T18:00:05.634Z,27.10
2022-08-11T18:05:19.012Z,26.70
2022-08-11T18:10:41.538Z,26.60
2022-08-11T18:16:04.152Z,26.10
2022-08-11T18:21:28.152Z,25.30
2022-08-11T18:26:50.535Z,24.70
2022-08-11T18:32:21.120Z,24.10
2022-08-11T18:37:49.596Z,23.60
2022-08-11T18:43:13.803Z,23.30
2022-08-11T18:48:41.028Z,23.10
2022-08-11T18:54:10.756Z,22.60
2022-08-11T18:59:35.769Z,22.20
2022-08-11T19:04:58.993Z,21.80
2022-08-11T19:10:24.215Z,21.60
2022-08-11T19:15:47.465Z,21.40
2022-08-11T19:21:10.750Z,21.20
2022-08-11T19:26:35.291Z,21.00
2022-08-11T19:31:58.538Z,20.70
2022-08-11T19:37:25.091Z,20.50
2022-08-11T19:42:48.976Z,20.40
2022-08-11T19:53:54.931Z,20.10
2022-08-11T19:59:18.764Z,20.00
2022-08-11T20:04:40.723Z,19.80
2022-08-11T20:10:06.556Z,19.70
2022-08-11T20:15:30.334Z,20.00
2022-08-11T20:20:52.950Z,19.80
2022-08-11T20:26:32.556Z,19.80
2022-08-11T20:31:56.973Z,20.20
2022-08-11T20:37:20.054Z,20.40
2022-08-11T20:42:43.814Z,20.00
2022-08-11T20:48:08.063Z,19.80
2022-08-11T20:53:31.231Z,20.20
2022-08-11T20:59:16.710Z,20.60
2022-08-11T21:04:54.355Z,20.70
2022-08-11T21:10:23.451Z,21.00
2022-08-11T21:16:01.807Z,20.60
2022-08-11T21:21:29.913Z,20.50
2022-08-11T21:27:09.307Z,20.40
2022-08-11T21:32:39.186Z,20.30
2022-08-11T21:38:03.194Z,20.50
2022-08-11T21:43:30.769Z,20.40
2022-08-11T21:48:53.596Z,20.50
2022-08-11T21:54:18.943Z,20.50
2022-08-11T21:59:56.723Z,20.60
2022-08-11T22:05:19.203Z,20.50
2022-08-11T22:10:43.159Z,20.30
2022-08-11T22:16:05.778Z,20.20
2022-08-11T22:22:02.933Z,19.90
2022-08-11T22:27:12.238Z,19.80
2022-08-11T22:32:36.220Z,19.50
2022-08-11T22:37:59.541Z,19.00
2022-08-11T22:43:22.550Z,18.60
2022-08-11T22:48:47.353Z,18.40
2022-08-11T22:54:09.876Z,18.10
2022-08-11T22:59:34.291Z,17.90
2022-08-11T23:04:57.095Z,17.70
2022-08-11T23:10:19.396Z,17.60
2022-08-11T23:15:43.248Z,17.40
2022-08-11T23:21:05.707Z,17.20
2022-08-11T23:26:29.387Z,17.10
2022-08-11T23:31:54.838Z,17.00
2022-08-11T23:37:16.469Z,16.90
2022-08-11T23:42:38.178Z,16.80
2022-08-11T23:48:02.661Z,16.80
2022-08-11T23:53:25.551Z,16.70
2022-08-11T23:58:47.698Z,16.50
